createdAt,value
2018-12-16T00:05:02.508Z,32.47
2018-12-16T00:10:05.687Z,30.97
2018-12-16T00:15:08.301Z,30.53
2018-12-16T00:20:11.096Z,31.23
2018-12-16T00:25:14.291Z,30.57
2018-12-16T00:30:16.906Z,31.00
2018-12-16T00:35:19.500Z,32.20
2018-12-16T00:40:22.171Z,28.90
2018-12-16T00:45:24.976Z,29.23
2018-12-16T00:50:28.255Z,26.93
2018-12-16T00:55:30.833Z,26.23
2018-12-16T01:00:33.785Z,26.23
2018-12-16T01:05:37.239Z,27.07
2018-12-16T01:10:40.417Z,28.33
2018-12-16T01:15:43.560Z,24.27
2018-12-16T01:20:46.307Z,27.97
2018-12-16T01:25:49.115Z,23.50
2018-12-16T01:30:52.285Z,24.87
2018-12-16T01:35:55.028Z,24.37
2018-12-16T01:40:57.963Z,22.57
2018-12-16T01:46:00.626Z,22.93
2018-12-16T01:51:03.173Z,24.97
2018-12-16T01:56:05.862Z,22.40
2018-12-16T02:01:08.498Z,24.37
2018-12-16T02:06:11.177Z,22.33
2018-12-16T02:11:14.009Z,20.90
2018-12-16T02:16:17.227Z,24.03
2018-12-16T02:21:19.918Z,23.80
2018-12-16T02:26:22.589Z,20.10
2018-12-16T02:31:25.426Z,25.37
2018-12-16T02:36:28.031Z,22.33
2018-12-16T02:41:30.970Z,22.57
2018-12-16T02:46:33.710Z,23.80
2018-12-16T02:51:36.507Z,25.50
2018-12-16T02:56:39.148Z,23.60
2018-12-16T03:01:43.690Z,22.43
2018-12-16T03:06:46.255Z,21.77
2018-12-16T03:11:48.902Z,21.63
2018-12-16T03:16:51.520Z,24.17
2018-12-16T03:21:54.352Z,23.97
2018-12-16T03:26:56.951Z,24.17
2018-12-16T03:31:59.521Z,24.50
2018-12-16T03:37:02.151Z,21.57
2018-12-16T03:42:04.704Z,24.80
2018-12-16T03:47:07.413Z,26.00
2018-12-16T03:52:10.108Z,28.87
2018-12-16T03:57:12.797Z,25.50
2018-12-16T04:02:15.637Z,28.10
2018-12-16T04:07:18.295Z,26.77
2018-12-16T04:12:21.006Z,27.33
2018-12-16T04:17:23.820Z,27.83
2018-12-16T04:22:26.606Z,27.87
2018-12-16T04:27:29.419Z,30.47
2018-12-16T04:32:32.257Z,29.33
2018-12-16T04:37:35.007Z,31.07
2018-12-16T04:42:37.705Z,32.70
2018-12-16T04:47:40.509Z,32.23
2018-12-16T04:52:43.283Z,29.18
2018-12-16T04:57:46.167Z,31.37
2018-12-16T05:02:49.630Z,30.50
2018-12-16T05:07:52.382Z,29.70
2018-12-16T05:12:55.062Z,29.53
2018-12-16T05:17:57.917Z,33.63
2018-12-16T05:23:01.204Z,29.57
2018-12-16T05:28:03.986Z,28.87
2018-12-16T05:33:06.932Z,30.10
2018-12-16T05:38:09.621Z,28.17
2018-12-16T05:43:12.280Z,27.77
2018-12-16T05:48:15.148Z,27.13
2018-12-16T05:53:17.708Z,26.30
2018-12-16T05:58:21.092Z,24.43
2018-12-16T06:03:23.770Z,23.97
2018-12-16T06:08:26.334Z,25.37
2018-12-16T06:13:29.092Z,24.43
2018-12-16T06:18:31.829Z,23.37
2018-12-16T06:23:34.532Z,21.43
2018-12-16T06:28:37.137Z,20.73
2018-12-16T06:33:39.824Z,22.60
2018-12-16T06:38:43.226Z,18.17
2018-12-16T06:43:45.965Z,20.27
2018-12-16T06:48:48.782Z,17.35
2018-12-16T06:53:51.559Z,19.67
2018-12-16T06:58:54.322Z,17.37
2018-12-16T07:03:57.011Z,19.50
2018-12-16T07:08:59.600Z,15.37
2018-12-16T07:14:02.199Z,15.17
2018-12-16T07:19:05.011Z,15.37
2018-12-16T07:24:09.418Z,15.90
2018-12-16T07:29:12.876Z,13.80
2018-12-16T07:34:15.518Z,14.33
2018-12-16T07:39:18.325Z,13.47
2018-12-16T07:44:20.908Z,15.00
2018-12-16T07:49:23.755Z,14.10
2018-12-16T07:54:26.405Z,13.50
2018-12-16T07:59:29.021Z,12.33
2018-12-16T08:04:31.864Z,12.47
2018-12-16T08:09:34.545Z,12.20
2018-12-16T08:14:37.448Z,14.47
2018-12-16T08:19:40.453Z,12.93
2018-12-16T08:24:43.138Z,14.17
2018-12-16T08:29:46.582Z,11.97
2018-12-16T08:34:49.570Z,15.30
2018-12-16T08:39:52.153Z,13.97
2018-12-16T08:44:55.316Z,13.60
2018-12-16T08:49:58.383Z,14.73
2018-12-16T08:55:01.071Z,14.57
2018-12-16T09:00:04.258Z,15.43
2018-12-16T09:05:07.114Z,14.77
2018-12-16T09:10:10.281Z,15.30
2018-12-16T09:15:12.890Z,16.00
2018-12-16T09:20:15.651Z,16.27
2018-12-16T09:25:18.824Z,14.10
2018-12-16T09:30:21.509Z,15.53
2018-12-16T09:35:24.066Z,14.53
2018-12-16T09:40:26.648Z,13.53
2018-12-16T09:45:29.233Z,16.43
2018-12-16T09:50:31.834Z,14.73
2018-12-16T09:55:34.435Z,16.07
2018-12-16T10:00:37.820Z,14.63
2018-12-16T10:05:40.416Z,15.40
2018-12-16T10:10:43.150Z,16.57
2018-12-16T10:15:46.086Z,13.53
2018-12-16T10:20:48.671Z,14.73
2018-12-16T10:25:52.122Z,15.77
2018-12-16T10:30:54.732Z,18.37
2018-12-16T10:35:58.616Z,15.93
2018-12-16T10:41:01.221Z,16.27
2018-12-16T10:46:03.836Z,14.53
2018-12-16T10:51:06.777Z,15.97
2018-12-16T10:56:09.356Z,14.93
2018-12-16T11:01:29.471Z,16.07
2018-12-16T11:06:32.048Z,14.47
2018-12-16T11:11:34.651Z,13.97
2018-12-16T11:16:37.507Z,15.07
2018-12-16T11:21:40.104Z,14.67
2018-12-16T11:26:42.741Z,14.10
2018-12-16T11:31:45.351Z,17.33
2018-12-16T11:36:47.970Z,14.47
2018-12-16T11:41:50.597Z,16.23
2018-12-16T11:46:53.378Z,17.33
2018-12-16T11:51:56.781Z,16.77
2018-12-16T11:56:59.473Z,17.23
2018-12-16T12:02:02.449Z,15.77
2018-12-16T12:07:05.194Z,17.33
2018-12-16T12:12:07.994Z,16.80
2018-12-16T12:17:10.587Z,18.97
2018-12-16T12:22:13.155Z,18.63
2018-12-16T12:27:16.475Z,18.47
2018-12-16T12:32:19.137Z,17.73
2018-12-16T12:37:22.315Z,18.03
2018-12-16T12:42:25.715Z,16.77
2018-12-16T12:47:28.345Z,16.63
2018-12-16T12:52:30.899Z,18.17
2018-12-16T12:57:33.598Z,17.67
2018-12-16T13:02:36.143Z,18.27
2018-12-16T13:07:38.852Z,17.87
2018-12-16T13:12:41.417Z,17.50
2018-12-16T13:17:44.074Z,16.97
2018-12-16T13:22:46.890Z,20.40
2018-12-16T13:27:50.155Z,17.00
2018-12-16T13:32:52.724Z,16.87
2018-12-16T13:37:55.395Z,18.63
2018-12-16T13:42:58.194Z,18.90
2018-12-16T13:48:00.997Z,18.20
2018-12-16T13:53:03.683Z,18.80
2018-12-16T13:58:06.941Z,18.10
2018-12-16T14:03:09.606Z,18.10
2018-12-16T14:08:12.566Z,17.13
2018-12-16T14:13:15.189Z,18.93
2018-12-16T14:18:18.238Z,20.33
2018-12-16T14:23:20.791Z,17.43
2018-12-16T14:28:23.496Z,18.40
2018-12-16T14:33:26.418Z,19.90
2018-12-16T14:38:29.333Z,21.67
2018-12-16T14:43:32.012Z,19.00
2018-12-16T14:48:34.573Z,19.90
2018-12-16T14:53:37.221Z,21.23
2018-12-16T14:58:39.883Z,21.33
2018-12-16T15:03:43.189Z,21.67
2018-12-16T15:08:45.790Z,21.53
2018-12-16T15:13:48.469Z,22.67
2018-12-16T15:18:51.162Z,21.00
2018-12-16T15:23:53.950Z,20.57
2018-12-16T15:28:56.575Z,24.07
2018-12-16T15:33:59.964Z,22.67
2018-12-16T15:39:02.740Z,25.17
2018-12-16T15:44:05.424Z,22.40
2018-12-16T15:49:08.204Z,24.93
2018-12-16T15:54:10.846Z,21.97
2018-12-16T15:59:13.473Z,23.65
2018-12-16T16:04:16.388Z,23.73
2018-12-16T16:09:19.193Z,25.07
2018-12-16T16:14:21.809Z,23.50
2018-12-16T16:19:24.441Z,28.30
2018-12-16T16:24:27.788Z,26.03
2018-12-16T16:29:30.367Z,23.30
2018-12-16T16:34:33.143Z,24.17
2018-12-16T16:39:35.705Z,25.27
2018-12-16T16:44:38.387Z,23.93
2018-12-16T16:49:40.970Z,22.13
2018-12-16T16:54:43.577Z,25.93
2018-12-16T16:59:46.935Z,25.50
2018-12-16T17:04:50.422Z,27.03
2018-12-16T17:09:53.250Z,22.90
2018-12-16T17:14:56.472Z,24.33
2018-12-16T17:19:59.120Z,25.13
2018-12-16T17:25:02.304Z,23.97
2018-12-16T17:30:07.116Z,24.43
2018-12-16T17:35:09.870Z,25.93
2018-12-16T17:40:12.618Z,26.23
2018-12-16T17:45:15.944Z,22.80
2018-12-16T17:50:18.688Z,25.27
2018-12-16T17:55:21.241Z,24.27
2018-12-16T18:00:24.171Z,23.47
2018-12-16T18:05:26.783Z,23.53
2018-12-16T18:10:29.382Z,24.17
2018-12-16T18:15:32.052Z,22.77
2018-12-16T18:20:35.403Z,24.80
2018-12-16T18:25:38.173Z,25.40
2018-12-16T18:30:40.778Z,25.07
2018-12-16T18:35:44.203Z,22.57
2018-12-16T18:40:46.920Z,26.00
2018-12-16T18:45:49.530Z,24.80
2018-12-16T18:50:52.165Z,28.33
2018-12-16T18:55:55.047Z,25.27
2018-12-16T19:00:57.735Z,27.00
2018-12-16T19:06:00.468Z,27.07
2018-12-16T19:11:03.654Z,22.93
2018-12-16T19:16:06.375Z,26.70
2018-12-16T19:21:09.258Z,25.80
2018-12-16T19:26:12.586Z,25.63
2018-12-16T19:31:15.285Z,25.30
2018-12-16T19:36:17.885Z,24.53
2018-12-16T19:41:20.630Z,26.53
2018-12-16T19:46:23.491Z,23.20
2018-12-16T19:51:26.389Z,23.93
2018-12-16T19:56:28.976Z,26.13
2018-12-16T20:01:31.729Z,25.67
2018-12-16T20:06:40.211Z,24.77
2018-12-16T20:11:42.911Z,24.40
2018-12-16T20:16:45.841Z,27.70
2018-12-16T20:21:49.248Z,21.93
2018-12-16T20:26:52.443Z,28.03
2018-12-16T20:31:55.788Z,25.20
2018-12-16T20:36:58.405Z,25.47
2018-12-16T20:42:01.951Z,25.47
2018-12-16T20:47:04.592Z,25.40
2018-12-16T20:52:07.467Z,28.50
2018-12-16T20:57:10.335Z,30.13
2018-12-16T21:02:12.918Z,27.83
2018-12-16T21:07:16.032Z,27.50
2018-12-16T21:12:24.325Z,25.00
2018-12-16T21:17:32.386Z,26.23
2018-12-16T21:22:35.215Z,28.13
2018-12-16T21:27:37.788Z,25.57
2018-12-16T21:32:40.513Z,26.17
2018-12-16T21:37:43.057Z,28.40
2018-12-16T21:42:45.860Z,28.73
2018-12-16T21:47:48.603Z,25.90
2018-12-16T21:52:51.457Z,29.87
2018-12-16T21:57:54.307Z,28.80
2018-12-16T22:02:56.909Z,27.30
2018-12-16T22:08:00.215Z,32.83
2018-12-16T22:13:02.909Z,32.07
2018-12-16T22:18:05.526Z,31.53
2018-12-16T22:23:08.811Z,32.63
2018-12-16T22:28:11.525Z,29.70
2018-12-16T22:33:14.725Z,29.67
2018-12-16T22:38:17.416Z,30.67
2018-12-16T22:43:21.050Z,34.93
2018-12-16T22:48:23.612Z,29.20
2018-12-16T22:53:26.437Z,30.10
2018-12-16T22:58:29.236Z,28.60
2018-12-16T23:03:31.929Z,31.33
2018-12-16T23:08:34.582Z,29.53
2018-12-16T23:13:37.494Z,32.73
2018-12-16T23:18:40.947Z,31.53
2018-12-16T23:23:43.641Z,28.73
2018-12-16T23:28:46.447Z,33.17
2018-12-16T23:33:49.018Z,31.63
2018-12-16T23:38:51.944Z,28.70
2018-12-16T23:43:54.845Z,30.43
2018-12-16T23:48:57.549Z,29.45
2018-12-16T23:54:00.170Z,31.87
2018-12-16T23:59:02.822Z,34.18
